Wedron, Illinois
Current Conditions -  °F | °C
As of 10:15 AM on Monday 22 Dec 2014 (Local Time) from KC09 Reporting Station
Moderate Rain Moderate Rain  
Wind Chill: 27°   Ceiling: 3400
Heat Index: 34°   Visibility: 3mi
Dew Point: 33°   Wind: 8mph
Humidity: 94%   Direction: 120°ESE
Pressure: 29.85"   Gusts: NA
Location:  41.44°N, 88.77°W
Report Text: KC09 221615Z AUTO 12007KT 3SM RA BKN034 OVC044 01/00 A2985 RMK AO2 T00120003
Loading
Personal Weather Stations






























Interactive Weather Map New forecast layout! Learn more

10-Day Weather Forecast

Advertisements
Track Severe Weather on mobile